Moran, Minnesota
Current Conditions -  °F | °C
As of 2:13 AM on Friday 24 Oct 2014 (Local Time) from KSAZ Reporting Station
Clear Clear  
Wind Chill:   Ceiling: Unl
Heat Index:   Visibility: 10mi
Dew Point:   Wind: 5mph
Humidity: 76%   Direction: 180°S
Pressure: 29.88"   Gusts: NA
Location:  46.4416°N, 94.6389°W
Report Text: KSAZ 240713Z AUTO 18004KT 10SM CLR 08/04 A2988 RMK AO2
Loading
Personal Weather Stations






























Interactive Weather Map
Tropical Storm Tracking
New forecast layout! Learn more

10-Day Weather Forecast

Advertisements
Track Severe Weather on mobile